createdAt,value
2023-05-21T00:01:40.518Z,14.87
2023-05-21T00:04:07.884Z,14.88
2023-05-21T00:06:37.575Z,14.86
2023-05-21T00:09:05.829Z,14.88
2023-05-21T00:11:32.780Z,14.87
2023-05-21T00:13:59.349Z,14.88
2023-05-21T00:16:26.126Z,14.88
2023-05-21T00:18:54.354Z,14.90
2023-05-21T00:21:26.300Z,14.87
2023-05-21T00:23:57.022Z,14.86
2023-05-21T00:26:26.626Z,14.82
2023-05-21T00:28:53.213Z,14.84
2023-05-21T00:31:19.758Z,14.83
2023-05-21T00:33:46.530Z,14.82
2023-05-21T00:36:14.590Z,14.79
2023-05-21T00:38:45.682Z,14.75
2023-05-21T00:41:13.179Z,14.74
2023-05-21T00:43:42.234Z,14.72
2023-05-21T00:46:12.177Z,14.72
2023-05-21T00:48:39.699Z,14.71
2023-05-21T00:51:07.257Z,14.66
2023-05-21T00:53:37.338Z,14.66
2023-05-21T00:56:04.525Z,14.65
2023-05-21T00:58:33.427Z,14.64
2023-05-21T01:01:06.762Z,14.66
2023-05-21T01:03:38.452Z,14.65
2023-05-21T01:06:06.403Z,14.65
2023-05-21T01:08:34.909Z,14.64
2023-05-21T01:11:03.262Z,14.63
2023-05-21T01:13:31.415Z,14.59
2023-05-21T01:15:59.669Z,14.57
2023-05-21T01:18:26.732Z,14.57
2023-05-21T01:20:53.768Z,14.57
2023-05-21T01:23:20.712Z,14.52
2023-05-21T01:25:47.703Z,14.52
2023-05-21T01:28:14.523Z,14.49
2023-05-21T01:30:42.775Z,14.49
2023-05-21T01:33:20.359Z,14.47
2023-05-21T01:36:05.647Z,14.45
2023-05-21T01:38:43.743Z,14.43
2023-05-21T01:41:17.954Z,14.43
2023-05-21T01:43:46.524Z,14.39
2023-05-21T01:46:20.013Z,14.35
2023-05-21T01:48:48.240Z,14.34
2023-05-21T01:51:14.867Z,14.33
2023-05-21T01:53:41.602Z,14.29
2023-05-21T01:56:08.349Z,14.29
2023-05-21T01:58:34.932Z,14.26
2023-05-21T02:01:02.863Z,14.27
2023-05-21T02:03:31.168Z,14.23
2023-05-21T02:05:57.870Z,14.21
2023-05-21T02:08:25.610Z,14.19
2023-05-21T02:10:52.354Z,14.16
2023-05-21T02:13:25.731Z,14.14
2023-05-21T02:15:54.819Z,14.12
2023-05-21T02:18:22.221Z,14.09
2023-05-21T02:20:48.985Z,14.12
2023-05-21T02:23:15.844Z,14.06
2023-05-21T02:25:42.604Z,14.07
2023-05-21T02:28:09.192Z,14.08
2023-05-21T02:30:36.574Z,14.06
2023-05-21T02:33:03.277Z,13.99
2023-05-21T02:35:29.940Z,13.99
2023-05-21T02:37:59.440Z,14.00
2023-05-21T02:40:26.362Z,13.98
2023-05-21T02:42:52.905Z,13.99
2023-05-21T02:45:19.534Z,13.96
2023-05-21T02:47:46.193Z,13.96
2023-05-21T02:50:14.194Z,13.96
2023-05-21T02:52:41.681Z,13.93
2023-05-21T02:55:08.695Z,13.94
2023-05-21T02:57:35.265Z,13.91
2023-05-21T03:00:01.803Z,13.89
2023-05-21T03:02:28.416Z,13.89
2023-05-21T03:04:55.604Z,13.86
2023-05-21T03:07:22.554Z,13.86
2023-05-21T03:09:49.147Z,13.84
2023-05-21T03:12:15.802Z,13.83
2023-05-21T03:14:44.101Z,13.80
2023-05-21T03:17:13.877Z,13.85
2023-05-21T03:19:41.763Z,13.82
2023-05-21T03:22:08.438Z,13.83
2023-05-21T03:24:35.336Z,13.84
2023-05-21T03:27:02.350Z,13.87
2023-05-21T03:29:29.167Z,13.86
2023-05-21T03:31:56.200Z,13.87
2023-05-21T03:34:23.313Z,13.88
2023-05-21T03:36:50.623Z,13.89
2023-05-21T03:39:17.419Z,13.90
2023-05-21T03:41:44.164Z,13.89
2023-05-21T03:44:10.772Z,13.84
2023-05-21T03:46:37.528Z,13.88
2023-05-21T03:49:04.248Z,13.87
2023-05-21T03:51:31.807Z,13.89
2023-05-21T03:53:59.445Z,13.91
2023-05-21T03:56:26.337Z,13.91
2023-05-21T03:58:53.098Z,13.93
2023-05-21T04:01:19.745Z,13.92
2023-05-21T04:03:46.667Z,13.93
2023-05-21T04:06:13.824Z,13.95
2023-05-21T04:08:40.358Z,13.94
2023-05-21T04:11:06.985Z,13.92
2023-05-21T04:13:33.851Z,13.89
2023-05-21T04:16:00.633Z,13.85
2023-05-21T04:18:27.441Z,13.82
2023-05-21T04:20:54.120Z,13.82
2023-05-21T04:23:23.485Z,13.78
2023-05-21T04:25:50.917Z,13.78
2023-05-21T04:28:21.205Z,13.78
2023-05-21T04:30:48.038Z,13.77
2023-05-21T04:33:18.526Z,13.76
2023-05-21T04:35:47.351Z,13.78
2023-05-21T04:38:14.272Z,13.74
2023-05-21T04:40:40.898Z,13.75
2023-05-21T04:43:08.240Z,13.75
2023-05-21T04:45:35.243Z,13.78
2023-05-21T04:48:03.055Z,13.76
2023-05-21T04:50:30.992Z,13.75
2023-05-21T04:52:58.922Z,13.74
2023-05-21T04:55:25.936Z,13.75
2023-05-21T04:57:53.057Z,13.75
2023-05-21T05:00:20.807Z,13.78
2023-05-21T05:02:47.497Z,13.76
2023-05-21T05:05:14.150Z,13.75
2023-05-21T05:07:40.901Z,13.76
2023-05-21T05:10:08.146Z,13.78
2023-05-21T05:12:34.672Z,13.80
2023-05-21T05:15:01.294Z,13.83
2023-05-21T05:17:27.995Z,13.85
2023-05-21T05:19:54.717Z,13.84
2023-05-21T05:22:21.334Z,13.87
2023-05-21T05:24:47.874Z,13.90
2023-05-21T05:27:14.469Z,13.91
2023-05-21T05:29:41.071Z,13.94
2023-05-21T05:32:08.054Z,13.92
2023-05-21T05:34:35.025Z,13.93
2023-05-21T05:37:03.016Z,13.94
2023-05-21T05:39:29.984Z,13.98
2023-05-21T05:41:56.695Z,13.98
2023-05-21T05:44:23.227Z,14.03
2023-05-21T05:46:49.794Z,14.03
2023-05-21T05:49:16.826Z,14.02
2023-05-21T05:51:43.342Z,14.04
2023-05-21T05:54:09.962Z,14.07
2023-05-21T05:56:36.520Z,14.09
2023-05-21T05:59:03.119Z,14.08
2023-05-21T06:01:29.738Z,14.09
2023-05-21T06:03:57.443Z,14.14
2023-05-21T06:06:24.284Z,14.18
2023-05-21T06:08:50.933Z,14.24
2023-05-21T06:11:18.962Z,14.31
2023-05-21T06:13:45.905Z,14.38
2023-05-21T06:16:12.733Z,14.47
2023-05-21T06:18:39.323Z,14.54
2023-05-21T06:21:06.019Z,14.55
2023-05-21T06:23:32.694Z,14.62
2023-05-21T06:25:59.317Z,14.68
2023-05-21T06:28:25.865Z,14.74
2023-05-21T06:30:52.537Z,14.81
2023-05-21T06:33:19.252Z,14.94
2023-05-21T06:35:46.029Z,15.04
2023-05-21T06:38:12.525Z,15.05
2023-05-21T06:40:39.071Z,15.02
2023-05-21T06:43:05.686Z,14.98
2023-05-21T06:45:32.245Z,14.98
2023-05-21T06:47:58.886Z,15.02
2023-05-21T06:50:25.484Z,15.04
2023-05-21T06:52:52.055Z,15.02
2023-05-21T06:55:18.655Z,15.01
2023-05-21T06:57:45.245Z,15.09
2023-05-21T07:00:12.569Z,15.14
2023-05-21T07:02:39.283Z,15.16
2023-05-21T07:05:06.289Z,15.18
2023-05-21T07:07:34.889Z,15.17
2023-05-21T07:10:01.528Z,15.20
2023-05-21T07:12:28.205Z,15.21
2023-05-21T07:14:54.831Z,15.31
2023-05-21T07:17:21.325Z,15.39
2023-05-21T07:19:47.853Z,15.52
2023-05-21T07:22:14.795Z,15.61
2023-05-21T07:24:41.637Z,15.65
2023-05-21T07:27:17.740Z,15.66
2023-05-21T07:29:51.785Z,15.77
2023-05-21T07:32:18.306Z,15.84
2023-05-21T07:34:44.953Z,15.94
2023-05-21T07:37:11.530Z,15.94
2023-05-21T07:39:38.118Z,15.89
2023-05-21T07:42:04.915Z,15.94
2023-05-21T07:44:31.969Z,15.95
2023-05-21T07:46:58.550Z,16.05
2023-05-21T07:49:25.155Z,16.08
2023-05-21T07:51:51.739Z,16.19
2023-05-21T07:54:19.714Z,16.24
2023-05-21T07:56:46.453Z,16.29
2023-05-21T07:59:17.118Z,16.42
2023-05-21T08:01:44.250Z,16.44
2023-05-21T08:04:11.208Z,16.47
2023-05-21T08:06:37.923Z,16.52
2023-05-21T08:09:06.266Z,16.53
2023-05-21T08:11:33.155Z,16.61
2023-05-21T08:13:59.732Z,16.61
2023-05-21T08:16:26.678Z,16.54
2023-05-21T08:18:53.342Z,16.53
2023-05-21T08:21:19.996Z,16.63
2023-05-21T08:23:46.567Z,16.79
2023-05-21T08:26:13.217Z,16.88
2023-05-21T08:28:39.838Z,16.88
2023-05-21T08:31:06.496Z,16.94
2023-05-21T08:33:37.146Z,16.96
2023-05-21T08:36:05.618Z,16.88
2023-05-21T08:38:32.358Z,16.86
2023-05-21T08:41:00.437Z,16.86
2023-05-21T08:43:28.417Z,16.90
2023-05-21T08:45:56.234Z,16.96
2023-05-21T08:48:24.208Z,17.12
2023-05-21T08:50:53.013Z,17.22
2023-05-21T08:53:27.321Z,17.26
2023-05-21T08:55:55.866Z,17.36
2023-05-21T08:58:22.669Z,17.54
2023-05-21T09:00:49.392Z,17.59
2023-05-21T09:03:16.410Z,17.72
2023-05-21T09:05:44.503Z,17.86
2023-05-21T09:08:21.778Z,17.96
2023-05-21T09:10:50.658Z,18.04
2023-05-21T09:13:18.579Z,18.02
2023-05-21T09:15:45.906Z,18.01
2023-05-21T09:18:13.658Z,18.13
2023-05-21T09:20:40.654Z,18.02
2023-05-21T09:23:12.763Z,17.92
2023-05-21T09:25:39.784Z,17.96
2023-05-21T09:28:12.189Z,18.03
2023-05-21T09:30:44.708Z,18.02
2023-05-21T09:33:12.318Z,18.20
2023-05-21T09:35:46.361Z,18.35
2023-05-21T09:38:13.129Z,18.41
2023-05-21T09:40:44.566Z,18.42
2023-05-21T09:43:14.915Z,18.48
2023-05-21T09:45:51.480Z,18.37
2023-05-21T09:48:32.395Z,18.59
2023-05-21T09:51:12.054Z,18.75
2023-05-21T09:53:53.361Z,18.72
2023-05-21T09:56:24.565Z,18.81
2023-05-21T09:58:54.634Z,18.90
2023-05-21T10:01:21.867Z,18.87
2023-05-21T10:03:53.982Z,18.96
2023-05-21T10:06:21.728Z,18.88
2023-05-21T10:08:52.007Z,18.81
2023-05-21T10:11:19.652Z,18.75
2023-05-21T10:13:53.111Z,18.84
2023-05-21T10:16:19.812Z,18.79
2023-05-21T10:18:49.180Z,18.81
2023-05-21T10:21:16.477Z,18.83
2023-05-21T10:23:44.447Z,18.83
2023-05-21T10:26:12.697Z,18.89
2023-05-21T10:28:40.078Z,19.01
2023-05-21T10:31:07.039Z,19.15
2023-05-21T10:33:35.771Z,19.15
2023-05-21T10:36:02.633Z,19.19
2023-05-21T10:38:29.902Z,19.29
2023-05-21T10:40:57.494Z,19.40
2023-05-21T10:43:47.281Z,19.27
2023-05-21T10:46:32.272Z,19.47
2023-05-21T10:49:04.544Z,19.53
2023-05-21T10:51:59.269Z,19.41
2023-05-21T10:55:02.033Z,19.32
2023-05-21T10:58:01.488Z,19.35
2023-05-21T11:00:28.758Z,19.32
2023-05-21T11:02:55.913Z,19.35
2023-05-21T11:05:50.856Z,19.63
2023-05-21T11:08:30.548Z,19.69
2023-05-21T11:10:58.983Z,19.59
2023-05-21T11:13:45.239Z,19.45
2023-05-21T11:16:18.304Z,19.47
2023-05-21T11:18:44.935Z,19.55
2023-05-21T11:21:17.108Z,19.71
2023-05-21T11:23:54.432Z,19.76
2023-05-21T11:26:26.240Z,19.85
2023-05-21T11:29:05.056Z,19.98
2023-05-21T11:31:40.106Z,20.09
2023-05-21T11:34:30.030Z,20.13
2023-05-21T11:37:18.694Z,20.20
2023-05-21T11:39:45.429Z,20.24
2023-05-21T11:42:12.069Z,20.23
2023-05-21T11:44:48.798Z,20.26
2023-05-21T11:47:17.891Z,20.21
2023-05-21T11:49:45.128Z,20.12
2023-05-21T11:52:12.950Z,20.38
2023-05-21T11:54:51.901Z,20.53
2023-05-21T11:57:19.588Z,20.69
2023-05-21T11:59:47.106Z,20.67
2023-05-21T12:02:18.923Z,20.62
2023-05-21T12:04:48.442Z,20.57
2023-05-21T12:07:17.147Z,20.62
2023-05-21T12:09:45.769Z,20.72
2023-05-21T12:12:15.181Z,20.81
2023-05-21T12:14:49.780Z,20.89
2023-05-21T12:17:18.874Z,20.86
2023-05-21T12:19:46.705Z,20.79
2023-05-21T12:22:15.449Z,20.86
2023-05-21T12:24:44.045Z,20.89
2023-05-21T12:27:13.536Z,20.88
2023-05-21T12:29:42.727Z,21.04
2023-05-21T12:32:14.324Z,20.94
2023-05-21T12:34:48.773Z,20.88
2023-05-21T12:37:23.500Z,20.83
2023-05-21T12:39:55.183Z,20.72
2023-05-21T12:42:35.493Z,20.93
2023-05-21T12:45:11.333Z,20.99
2023-05-21T12:47:38.241Z,20.98
2023-05-21T12:50:14.064Z,20.97
2023-05-21T12:52:43.194Z,21.13
2023-05-21T12:55:13.327Z,21.09
2023-05-21T12:57:39.844Z,20.99
2023-05-21T13:00:12.653Z,21.02
2023-05-21T13:02:41.124Z,21.03
2023-05-21T13:05:09.773Z,21.06
2023-05-21T13:07:38.250Z,21.07
2023-05-21T13:10:06.158Z,21.17
2023-05-21T13:12:34.215Z,21.21
2023-05-21T13:15:02.625Z,21.30
2023-05-21T13:17:29.359Z,21.40
2023-05-21T13:20:16.071Z,21.39
2023-05-21T13:22:48.032Z,21.31
2023-05-21T13:25:16.783Z,21.25
2023-05-21T13:27:44.140Z,21.18
2023-05-21T13:30:11.777Z,21.19
2023-05-21T13:32:39.634Z,21.31
2023-05-21T13:35:06.849Z,21.33
2023-05-21T13:37:37.766Z,21.31
2023-05-21T13:40:05.956Z,21.36
2023-05-21T13:42:33.324Z,21.32
2023-05-21T13:44:59.878Z,21.28
2023-05-21T13:47:29.773Z,21.40
2023-05-21T13:49:56.395Z,21.32
2023-05-21T13:52:23.035Z,21.33
2023-05-21T13:54:49.655Z,21.33
2023-05-21T13:57:20.342Z,21.45
2023-05-21T13:59:51.083Z,21.50
2023-05-21T14:02:17.725Z,21.40
2023-05-21T14:04:44.704Z,21.44
2023-05-21T14:07:14.154Z,21.43
2023-05-21T14:09:40.787Z,21.47
2023-05-21T14:12:07.709Z,21.43
2023-05-21T14:14:34.649Z,21.44
2023-05-21T14:17:01.305Z,21.42
2023-05-21T14:19:28.670Z,21.40
2023-05-21T14:21:56.560Z,21.43
2023-05-21T14:24:23.170Z,21.40
2023-05-21T14:26:49.719Z,21.52
2023-05-21T14:29:24.308Z,21.54
2023-05-21T14:31:50.930Z,21.56
2023-05-21T14:34:17.505Z,21.59
2023-05-21T14:36:44.071Z,21.60
2023-05-21T14:39:10.693Z,21.52
2023-05-21T14:41:39.550Z,21.51
2023-05-21T14:44:06.089Z,21.62
2023-05-21T14:46:32.999Z,21.67
2023-05-21T14:49:00.831Z,21.56
2023-05-21T14:51:27.607Z,21.45
2023-05-21T14:53:54.343Z,21.23
2023-05-21T14:56:21.871Z,21.19
2023-05-21T14:58:48.689Z,21.16
2023-05-21T15:01:15.251Z,21.10
2023-05-21T15:03:42.119Z,20.99
2023-05-21T15:06:09.159Z,20.98
2023-05-21T15:08:35.905Z,21.12
2023-05-21T15:11:02.610Z,21.06
2023-05-21T15:13:29.380Z,20.93
2023-05-21T15:15:56.208Z,20.95
2023-05-21T15:18:24.720Z,20.93
2023-05-21T15:20:51.635Z,20.84
2023-05-21T15:23:18.385Z,20.86
2023-05-21T15:25:45.506Z,20.94
2023-05-21T15:28:12.448Z,20.92
2023-05-21T15:30:41.054Z,20.91
2023-05-21T15:33:08.117Z,20.86
2023-05-21T15:35:36.385Z,20.85
2023-05-21T15:38:03.456Z,20.92
2023-05-21T15:40:30.116Z,20.76
2023-05-21T15:42:57.075Z,20.69
2023-05-21T15:45:24.670Z,20.69
2023-05-21T15:47:51.386Z,20.74
2023-05-21T15:50:17.970Z,20.66
2023-05-21T15:52:44.582Z,20.65
2023-05-21T15:55:11.169Z,20.66
2023-05-21T15:57:37.791Z,20.66
2023-05-21T16:00:05.108Z,20.65
2023-05-21T16:02:31.993Z,20.62
2023-05-21T16:04:58.656Z,20.62
2023-05-21T16:07:25.387Z,20.57
2023-05-21T16:09:51.983Z,20.51
2023-05-21T16:12:18.620Z,20.52
2023-05-21T16:14:48.437Z,20.48
2023-05-21T16:17:15.337Z,20.48
2023-05-21T16:19:42.065Z,20.44
2023-05-21T16:22:10.658Z,20.45
2023-05-21T16:24:37.469Z,20.51
2023-05-21T16:27:04.171Z,20.49
2023-05-21T16:29:30.848Z,20.45
2023-05-21T16:31:57.415Z,20.37
2023-05-21T16:34:24.015Z,20.30
2023-05-21T16:36:51.782Z,20.29
2023-05-21T16:39:18.387Z,20.25
2023-05-21T16:41:44.941Z,20.16
2023-05-21T16:44:11.623Z,20.21
2023-05-21T16:46:38.378Z,20.24
2023-05-21T16:49:05.235Z,20.21
2023-05-21T16:51:32.028Z,20.19
2023-05-21T16:53:58.686Z,20.23
2023-05-21T16:56:27.193Z,20.28
2023-05-21T16:58:53.770Z,20.27
2023-05-21T17:01:24.563Z,20.21
2023-05-21T17:03:56.669Z,20.07
2023-05-21T17:06:25.994Z,19.96
2023-05-21T17:08:52.559Z,19.90
2023-05-21T17:11:19.434Z,19.84
2023-05-21T17:13:49.106Z,19.78
2023-05-21T17:16:15.790Z,19.63
2023-05-21T17:18:42.510Z,19.59
2023-05-21T17:21:11.166Z,19.65
2023-05-21T17:23:39.957Z,19.60
2023-05-21T17:26:08.384Z,19.49
2023-05-21T17:28:42.731Z,19.43
2023-05-21T17:31:10.161Z,19.37
2023-05-21T17:33:37.417Z,19.37
2023-05-21T17:36:04.349Z,19.34
2023-05-21T17:38:37.442Z,19.31
2023-05-21T17:41:04.385Z,19.27
2023-05-21T17:43:32.116Z,19.24
2023-05-21T17:45:58.969Z,19.15
2023-05-21T17:48:28.295Z,19.12
2023-05-21T17:50:55.740Z,19.10
2023-05-21T17:53:22.840Z,19.06
2023-05-21T17:55:51.712Z,19.03
2023-05-21T17:58:18.441Z,19.00
2023-05-21T18:00:45.201Z,18.94
2023-05-21T18:03:13.894Z,18.93
2023-05-21T18:05:40.518Z,18.94
2023-05-21T18:08:10.129Z,18.89
2023-05-21T18:10:36.949Z,18.84
2023-05-21T18:13:06.514Z,18.78
2023-05-21T18:15:34.188Z,18.72
2023-05-21T18:18:01.033Z,18.73
2023-05-21T18:20:27.943Z,18.77
2023-05-21T18:22:54.616Z,18.77
2023-05-21T18:25:21.469Z,18.72
2023-05-21T18:27:48.378Z,18.69
2023-05-21T18:30:17.539Z,18.66
2023-05-21T18:32:44.700Z,18.62
2023-05-21T18:35:17.816Z,18.59
2023-05-21T18:37:48.020Z,18.55
2023-05-21T18:40:15.118Z,18.55
2023-05-21T18:42:43.485Z,18.53
2023-05-21T18:45:13.333Z,18.52
2023-05-21T18:47:40.594Z,18.48
2023-05-21T18:50:12.841Z,18.42
2023-05-21T18:52:39.485Z,18.36
2023-05-21T18:55:06.740Z,18.29
2023-05-21T18:57:34.765Z,18.26
2023-05-21T19:00:01.585Z,18.19
2023-05-21T19:02:29.718Z,18.16
2023-05-21T19:04:56.503Z,18.12
2023-05-21T19:07:23.517Z,18.12
2023-05-21T19:09:50.238Z,18.03
2023-05-21T19:12:17.074Z,17.96
2023-05-21T19:14:49.050Z,17.86
2023-05-21T19:17:36.505Z,17.85
2023-05-21T19:20:05.251Z,17.80
2023-05-21T19:22:35.283Z,17.76
2023-05-21T19:25:01.959Z,17.70
2023-05-21T19:27:29.595Z,17.65
2023-05-21T19:29:56.296Z,17.60
2023-05-21T19:32:23.823Z,17.51
2023-05-21T19:34:52.470Z,17.44
2023-05-21T19:37:19.150Z,17.39
2023-05-21T19:39:49.628Z,17.31
2023-05-21T19:42:17.349Z,17.25
2023-05-21T19:44:44.041Z,17.22
2023-05-21T19:47:10.705Z,17.17
2023-05-21T19:49:37.338Z,17.12
2023-05-21T19:52:04.693Z,17.07
2023-05-21T19:54:31.274Z,16.99
2023-05-21T19:56:57.988Z,16.96
2023-05-21T19:59:24.569Z,16.91
2023-05-21T20:01:51.632Z,16.88
2023-05-21T20:04:18.397Z,16.82
2023-05-21T20:06:45.024Z,16.77
2023-05-21T20:09:13.320Z,16.71
2023-05-21T20:11:42.116Z,16.69
2023-05-21T20:14:09.042Z,16.63
2023-05-21T20:16:36.687Z,16.58
2023-05-21T20:19:03.892Z,16.55
2023-05-21T20:21:31.867Z,16.53
2023-05-21T20:23:58.581Z,16.47
2023-05-21T20:26:26.291Z,16.45
2023-05-21T20:28:53.061Z,16.41
2023-05-21T20:31:20.265Z,16.37
2023-05-21T20:33:46.912Z,16.33
2023-05-21T20:36:15.341Z,16.28
2023-05-21T20:38:42.193Z,16.29
2023-05-21T20:41:08.883Z,16.25
2023-05-21T20:43:37.318Z,16.23
2023-05-21T20:46:05.748Z,16.18
2023-05-21T20:48:32.499Z,16.17
2023-05-21T20:51:00.228Z,16.11
2023-05-21T20:53:27.072Z,16.10
2023-05-21T20:55:54.800Z,16.03
2023-05-21T20:58:24.025Z,16.03
2023-05-21T21:00:51.060Z,15.97
2023-05-21T21:03:18.512Z,15.96
2023-05-21T21:05:45.092Z,15.94
2023-05-21T21:08:12.363Z,15.92
2023-05-21T21:10:41.468Z,15.90
2023-05-21T21:13:08.425Z,15.88
2023-05-21T21:15:35.458Z,15.86
2023-05-21T21:18:02.140Z,15.83
2023-05-21T21:20:28.723Z,15.79
2023-05-21T21:22:55.796Z,15.78
2023-05-21T21:25:22.355Z,15.76
2023-05-21T21:27:49.166Z,15.79
2023-05-21T21:30:15.724Z,15.75
2023-05-21T21:32:42.365Z,15.74
2023-05-21T21:35:10.003Z,15.76
2023-05-21T21:37:36.732Z,15.75
2023-05-21T21:40:03.813Z,15.74
2023-05-21T21:42:30.445Z,15.74
2023-05-21T21:44:57.017Z,15.73
2023-05-21T21:47:23.692Z,15.72
2023-05-21T21:49:50.382Z,15.70
2023-05-21T21:52:17.523Z,15.65
2023-05-21T21:54:44.148Z,15.64
2023-05-21T21:57:10.805Z,15.58
2023-05-21T21:59:38.581Z,15.51
2023-05-21T22:02:05.830Z,15.50
2023-05-21T22:04:32.409Z,15.50
2023-05-21T22:06:59.000Z,15.48
2023-05-21T22:09:25.526Z,15.50
2023-05-21T22:11:53.422Z,15.45
2023-05-21T22:14:20.153Z,15.34
2023-05-21T22:16:47.831Z,15.33
2023-05-21T22:19:15.995Z,15.36
2023-05-21T22:21:43.246Z,15.33
2023-05-21T22:24:20.637Z,15.27
2023-05-21T22:26:56.347Z,15.27
2023-05-21T22:29:22.865Z,15.23
2023-05-21T22:31:49.416Z,15.24
2023-05-21T22:34:15.965Z,15.19
2023-05-21T22:36:43.524Z,15.19
2023-05-21T22:39:10.288Z,15.17
2023-05-21T22:41:36.888Z,15.14
2023-05-21T22:44:03.532Z,15.12
2023-05-21T22:46:30.216Z,15.08
2023-05-21T22:48:56.838Z,15.09
2023-05-21T22:51:23.850Z,15.08
2023-05-21T22:53:50.469Z,15.07
2023-05-21T22:56:17.025Z,15.07
2023-05-21T22:58:43.880Z,15.12
2023-05-21T23:01:10.508Z,15.09
2023-05-21T23:03:37.091Z,15.14
2023-05-21T23:06:03.931Z,15.18
2023-05-21T23:08:30.440Z,15.21
2023-05-21T23:10:56.920Z,15.18
2023-05-21T23:13:23.518Z,15.19
2023-05-21T23:15:50.762Z,15.16
2023-05-21T23:18:17.359Z,15.21
2023-05-21T23:20:44.061Z,15.27
2023-05-21T23:23:11.120Z,15.32
2023-05-21T23:25:37.616Z,15.36
2023-05-21T23:28:04.479Z,15.38
2023-05-21T23:30:31.052Z,15.40
2023-05-21T23:32:57.729Z,15.36
2023-05-21T23:35:24.301Z,15.35
2023-05-21T23:37:50.878Z,15.34
2023-05-21T23:40:17.422Z,15.21
2023-05-21T23:42:44.026Z,15.16
2023-05-21T23:45:11.014Z,15.12
2023-05-21T23:47:37.667Z,15.09
2023-05-21T23:50:04.648Z,15.03
2023-05-21T23:52:31.335Z,15.00
2023-05-21T23:54:58.019Z,15.00
2023-05-21T23:57:24.567Z,14.97
2023-05-21T23:59:51.121Z,14.96
